Time;durP1;ratioP1;P1;durP2;ratioP2;P2;SDS_P1;SDS_P2;PMS_P1;PMS_P2;Temp;Humidity;BMP_temperature;BMP_pressure;BME280_temperature;BME280_humidity;BME280_pressure;Samples;Min_cycle;Max_cycle;Signal;HPM_P1;HPM_P2
2023/08/23 00:00:11;;;;;;;5.82;2.92;;;;;;;18.37;83.63;101812.91;3587350;40;20129;-67
2023/08/23 00:02:37;;;;;;;3.78;2.80;;;;;;;17.79;83.62;101709.53;3583043;40;20096;-64
2023/08/23 00:05:03;;;;;;;4.55;2.85;;;;;;;18.35;83.85;101803.97;3587272;40;20591;-66
2023/08/23 00:07:28;;;;;;;4.53;3.10;;;;;;;18.35;83.06;101803.13;3585123;40;20048;-64
2023/08/23 00:09:54;;;;;;;3.58;2.80;;;;;;;18.31;83.89;101797.06;3584314;40;20123;-64
2023/08/23 00:12:20;;;;;;;3.90;2.70;;;;;;;18.28;83.39;101800.88;3585341;40;20072;-63
2023/08/23 00:14:45;;;;;;;3.08;2.42;;;;;;;18.23;83.31;101800.38;3585038;40;20586;-64
2023/08/23 00:17:11;;;;;;;4.13;2.92;;;;;;;18.19;83.62;101790.72;3583635;40;20078;-65
2023/08/23 00:19:36;;;;;;;5.38;2.60;;;;;;;18.21;83.64;101794.19;3586010;40;20063;-63
2023/08/23 00:22:03;;;;;;;3.47;2.47;;;;;;;18.18;83.78;101797.16;3585056;40;20064;-63
2023/08/23 00:24:28;;;;;;;4.10;2.65;;;;;;;18.17;84.59;101802.72;3586809;40;20116;-63
2023/08/23 00:26:55;;;;;;;2.80;2.60;;;;;;;18.14;83.81;101801.13;3583983;40;20078;-64
2023/08/23 00:29:21;;;;;;;6.28;2.70;;;;;;;18.11;83.60;101804.06;3584588;40;20127;-65
2023/08/23 00:31:46;;;;;;;4.13;3.00;;;;;;;18.07;84.88;101791.69;3582953;40;20140;-66
2023/08/23 00:34:12;;;;;;;3.72;2.70;;;;;;;18.03;84.75;101787.47;3585633;40;20234;-67
2023/08/23 00:36:37;;;;;;;5.85;2.67;;;;;;;17.98;85.07;101781.50;3584682;40;20061;-63
2023/08/23 00:39:03;;;;;;;3.55;3.10;;;;;;;17.99;85.66;101788.72;3585804;40;20064;-65
2023/08/23 00:41:29;;;;;;;4.57;3.25;;;;;;;17.96;85.33;101781.66;3584381;40;20064;-65
2023/08/23 00:43:54;;;;;;;5.10;3.22;;;;;;;17.91;85.61;101774.81;3584407;40;20075;-63
2023/08/23 00:46:22;;;;;;;4.68;3.20;;;;;;;17.85;87.11;101768.00;3584733;40;20048;-63
2023/08/23 00:48:49;;;;;;;5.22;3.15;;;;;;;17.80;86.81;101765.66;3584291;40;20060;-63
2023/08/23 00:51:17;;;;;;;3.65;2.88;;;;;;;17.78;86.64;101773.03;3582483;40;20086;-63
2023/08/23 00:53:43;;;;;;;4.57;3.00;;;;;;;17.72;86.97;101767.19;3584300;40;20052;-62
2023/08/23 00:56:09;;;;;;;3.88;2.78;;;;;;;17.56;87.68;101748.47;3581810;40;20072;-63
2023/08/23 00:58:36;;;;;;;3.38;2.90;;;;;;;17.62;86.95;101764.31;3582903;40;20059;-62
2023/08/23 01:01:01;;;;;;;7.38;3.67;;;;;;;17.61;86.73;101760.72;3582700;40;20060;-63
2023/08/23 01:03:27;;;;;;;4.30;3.08;;;;;;;17.57;87.40;101763.78;3583618;40;20079;-62
2023/08/23 01:06:10;;;;;;;4.90;3.15;;;;;;;17.55;86.68;101763.03;3583039;39;20087;-62
2023/08/23 01:09:06;;;;;;;5.07;3.00;;;;;;;17.51;86.67;101767.84;3585253;40;20055;-62
2023/08/23 01:11:45;;;;;;;4.13;2.80;;;;;;;17.45;86.48;101767.47;3587717;40;20319;-62
2023/08/23 01:15:07;;;;;;;9.48;2.85;;;;;;;17.40;86.57;101774.09;3585093;40;20064;-63
2023/08/23 01:17:41;;;;;;;7.03;3.10;;;;;;;17.39;87.51;101776.94;3552074;40;20065;-63
2023/08/23 01:20:10;;;;;;;7.20;2.88;;;;;;;17.34;86.90;101768.25;3581613;40;20602;-63
2023/08/23 01:22:45;;;;;;;5.90;3.05;;;;;;;17.33;86.98;101772.81;3582802;40;20118;-63
2023/08/23 01:25:13;;;;;;;6.93;2.70;;;;;;;17.28;86.83;101766.00;3582828;40;20102;-63
2023/08/23 01:27:39;;;;;;;6.72;2.80;;;;;;;17.24;87.45;101773.50;3582580;40;20084;-63
2023/08/23 01:30:05;;;;;;;3.25;2.55;;;;;;;17.25;87.93;101780.66;3581464;40;20055;-63
2023/08/23 01:32:51;;;;;;;6.68;3.00;;;;;;;17.24;87.44;101778.94;3584668;40;20047;-63
2023/08/23 01:35:41;;;;;;;5.07;2.80;;;;;;;17.21;87.07;101779.16;3582789;40;20056;-63
2023/08/23 01:38:11;;;;;;;8.13;3.30;;;;;;;17.19;87.67;101775.72;3583259;40;20052;-63
2023/08/23 01:40:39;;;;;;;7.00;3.50;;;;;;;17.17;87.44;101772.25;3584580;40;20117;-63
2023/08/23 01:43:04;;;;;;;7.82;3.40;;;;;;;17.15;88.54;101768.75;3584400;40;20095;-63
2023/08/23 01:45:30;;;;;;;6.10;3.30;;;;;;;17.09;87.73;101756.50;3584866;40;20414;-63
2023/08/23 01:47:55;;;;;;;7.75;3.05;;;;;;;17.06;88.68;101753.13;3580984;40;20072;-63
2023/08/23 01:50:21;;;;;;;6.65;3.30;;;;;;;17.02;89.13;101751.66;3582409;40;20079;-62
2023/08/23 01:52:47;;;;;;;7.15;3.20;;;;;;;16.93;89.08;101748.63;3582802;40;20062;-63
2023/08/23 01:55:17;;;;;;;8.27;3.45;;;;;;;17.00;88.46;101764.47;3577006;40;20171;-65
2023/08/23 01:57:44;;;;;;;6.10;3.45;;;;;;;16.96;88.91;101757.53;3583014;40;20059;-63
2023/08/23 02:00:11;;;;;;;5.47;3.65;;;;;;;16.82;88.76;101729.53;3583965;39;20060;-63
2023/08/23 02:02:36;;;;;;;6.97;3.42;;;;;;;16.98;88.46;101759.16;3586234;40;20058;-63
2023/08/23 02:05:02;;;;;;;8.73;3.33;;;;;;;16.95;87.63;101759.38;3583707;40;20048;-63
2023/08/23 02:07:28;;;;;;;8.00;3.17;;;;;;;16.96;88.59;101754.81;3585112;40;20066;-63
2023/08/23 02:09:53;;;;;;;5.57;3.20;;;;;;;16.96;88.11;101754.81;3583868;40;20510;-63
2023/08/23 02:12:19;;;;;;;7.80;3.30;;;;;;;16.96;87.95;101752.97;3585421;40;20060;-63
2023/08/23 02:14:44;;;;;;;5.40;3.33;;;;;;;16.90;87.81;101751.59;3582361;40;20315;-63
2023/08/23 02:17:10;;;;;;;8.98;3.25;;;;;;;16.93;87.79;101766.75;3583149;40;20064;-63
2023/08/23 02:19:36;;;;;;;9.18;3.20;;;;;;;16.93;88.05;101758.63;3581997;40;20287;-63
2023/08/23 02:22:01;;;;;;;7.95;3.22;;;;;;;16.91;87.24;101761.47;3582905;40;20059;-63
2023/08/23 02:24:27;;;;;;;6.70;3.28;;;;;;;16.91;88.01;101758.75;3576678;40;20059;-63
2023/08/23 02:26:53;;;;;;;5.60;3.47;;;;;;;16.90;87.89;101757.03;3583252;40;20067;-63
2023/08/23 02:29:18;;;;;;;9.68;3.65;;;;;;;16.87;87.77;101751.81;3582054;40;20678;-63
2023/08/23 02:31:44;;;;;;;9.52;3.80;;;;;;;16.80;88.91;101747.78;3582175;40;20103;-63
2023/08/23 02:34:09;;;;;;;8.27;3.95;;;;;;;16.78;88.07;101749.78;3585771;40;20056;-63
2023/08/23 02:36:35;;;;;;;6.80;3.78;;;;;;;16.79;89.08;101751.50;3581074;40;20063;-64
2023/08/23 02:39:01;;;;;;;8.32;4.18;;;;;;;16.78;88.96;101762.44;3581172;40;20338;-64
2023/08/23 02:41:26;;;;;;;7.63;4.15;;;;;;;16.77;88.97;101758.88;3583836;40;20070;-64
2023/08/23 02:43:52;;;;;;;7.43;4.72;;;;;;;16.75;88.96;101752.72;3582533;40;20415;-64
2023/08/23 02:46:17;;;;;;;6.00;4.70;;;;;;;16.73;88.68;101754.63;3584223;40;20060;-64
2023/08/23 02:48:43;;;;;;;6.88;4.43;;;;;;;16.68;89.10;101754.06;3583362;40;20288;-64
2023/08/23 02:51:09;;;;;;;8.25;4.85;;;;;;;16.66;88.73;101750.63;3583181;40;20410;-64
2023/08/23 02:53:34;;;;;;;10.15;5.78;;;;;;;16.66;89.63;101746.06;3582879;40;20055;-64
2023/08/23 02:56:00;;;;;;;9.48;5.20;;;;;;;16.66;88.96;101745.19;3582003;40;20068;-63
2023/08/23 02:58:25;;;;;;;7.15;5.65;;;;;;;16.63;88.63;101751.72;3581423;40;20055;-64
2023/08/23 03:00:51;;;;;;;10.52;5.10;;;;;;;16.61;88.50;101747.38;3581449;40;20060;-64
2023/08/23 03:03:17;;;;;;;5.28;4.20;;;;;;;16.58;89.15;101736.72;3584212;40;20044;-64
2023/08/23 03:05:58;;;;;;;6.32;4.20;;;;;;;16.50;89.33;101733.72;3582278;40;20264;-63
2023/08/23 03:08:27;;;;;;;7.63;5.28;;;;;;;16.53;89.12;101728.06;3583668;40;20299;-63
2023/08/23 03:11:03;;;;;;;9.02;5.28;;;;;;;16.45;89.57;101732.19;3584409;40;20067;-63
2023/08/23 03:13:28;;;;;;;6.95;4.88;;;;;;;16.50;89.82;101744.59;3584988;40;20165;-64
2023/08/23 03:15:54;;;;;;;11.80;6.10;;;;;;;16.46;90.06;101733.94;3583584;40;20072;-64
2023/08/23 03:18:21;;;;;;;9.68;5.40;;;;;;;16.45;89.77;101740.31;3582228;40;20096;-64
2023/08/23 03:20:49;;;;;;;9.75;6.78;;;;;;;16.42;89.45;101737.84;3583226;40;20059;-63
2023/08/23 03:23:18;;;;;;;9.15;6.50;;;;;;;16.41;89.46;101732.53;3583046;40;20052;-64
2023/08/23 03:25:45;;;;;;;10.10;6.60;;;;;;;16.39;89.07;101732.63;3585377;40;20060;-63
2023/08/23 03:28:13;;;;;;;8.30;5.82;;;;;;;16.39;89.58;101729.91;3584576;40;20052;-64
2023/08/23 03:30:39;;;;;;;7.35;5.78;;;;;;;16.36;89.19;101724.72;3582118;40;20040;-64
2023/08/23 03:33:05;;;;;;;8.63;5.70;;;;;;;16.29;89.72;101714.41;3583397;40;20062;-64
2023/08/23 03:35:31;;;;;;;6.80;5.78;;;;;;;16.32;90.29;101731.34;3586009;40;20060;-63
2023/08/23 03:37:57;;;;;;;8.63;5.72;;;;;;;16.33;89.77;101730.34;3585094;40;20152;-64
2023/08/23 03:40:23;;;;;;;13.57;7.25;;;;;;;16.34;90.36;101742.97;3583301;40;20067;-64
2023/08/23 03:42:49;;;;;;;8.43;6.68;;;;;;;16.35;90.84;101743.81;3583724;40;20070;-64
2023/08/23 03:45:20;;;;;;;11.35;6.55;;;;;;;16.32;90.17;101736.75;3586751;40;20044;-63
2023/08/23 03:47:45;;;;;;;10.50;6.13;;;;;;;16.30;89.80;101725.19;3582619;40;20053;-64
2023/08/23 03:50:12;;;;;;;11.02;5.80;;;;;;;16.27;90.29;101733.53;3583367;40;20276;-64
2023/08/23 03:52:38;;;;;;;7.80;6.15;;;;;;;16.24;90.04;101728.31;3584212;40;20059;-64
2023/08/23 03:55:04;;;;;;;10.60;6.30;;;;;;;16.24;91.07;101728.31;3585190;40;20067;-63
2023/08/23 03:57:29;;;;;;;11.20;5.95;;;;;;;16.23;90.82;101726.56;3582138;40;20075;-63
2023/08/23 03:59:55;;;;;;;7.75;6.40;;;;;;;16.25;90.14;101730.06;3583280;40;20410;-63
2023/08/23 04:02:21;;;;;;;7.00;6.20;;;;;;;16.26;90.71;101734.50;3583861;40;20070;-64
2023/08/23 04:04:46;;;;;;;11.13;5.90;;;;;;;16.29;90.78;101730.69;3584502;40;20095;-63
2023/08/23 04:07:15;;;;;;;6.82;5.05;;;;;;;16.31;90.16;101737.75;3586388;40;20129;-63
2023/08/23 04:09:41;;;;;;;8.07;5.30;;;;;;;16.33;91.10;101726.78;3583995;40;20421;-63
2023/08/23 04:12:08;;;;;;;7.82;4.57;;;;;;;16.33;90.25;101738.50;3584844;40;20056;-63
2023/08/23 04:14:35;;;;;;;7.50;5.03;;;;;;;16.28;90.42;101734.41;3583049;40;20160;-63
2023/08/23 04:17:02;;;;;;;7.22;5.05;;;;;;;16.31;90.98;101740.47;3586199;40;20071;-64
2023/08/23 04:19:27;;;;;;;8.27;5.10;;;;;;;16.28;90.69;101745.25;3583650;40;20068;-63
2023/08/23 04:21:53;;;;;;;6.15;5.07;;;;;;;16.26;90.40;101731.78;3583955;40;20060;-64
2023/08/23 04:24:21;;;;;;;9.75;4.78;;;;;;;16.28;90.86;101737.09;3584548;40;20103;-63
2023/08/23 04:26:47;;;;;;;8.32;4.78;;;;;;;16.31;90.21;101739.59;3583775;40;20064;-64
2023/08/23 04:29:13;;;;;;;5.28;4.03;;;;;;;16.30;89.57;101737.84;3582899;40;20059;-64
2023/08/23 04:31:38;;;;;;;6.78;4.43;;;;;;;16.25;89.04;101736.34;3582824;40;20595;-63
2023/08/23 04:34:04;;;;;;;6.15;4.25;;;;;;;16.25;89.43;101740.91;3576608;40;20063;-64
2023/08/23 04:36:31;;;;;;;5.10;4.22;;;;;;;16.25;89.67;101740.91;3582457;40;20060;-64
2023/08/23 04:38:57;;;;;;;6.28;4.32;;;;;;;16.32;89.84;101742.19;3584918;40;20048;-64
2023/08/23 04:41:23;;;;;;;8.25;3.80;;;;;;;16.33;90.03;101745.78;3589184;40;20059;-64
2023/08/23 04:43:49;;;;;;;7.03;4.43;;;;;;;16.13;89.89;101709.22;3583301;40;20063;-64
2023/08/23 04:46:15;;;;;;;5.22;4.72;;;;;;;16.37;90.04;101742.75;3583564;40;20446;-64
2023/08/23 04:48:40;;;;;;;5.90;4.10;;;;;;;16.38;90.11;101752.63;3586218;40;20052;-64
2023/08/23 04:51:09;;;;;;;8.38;4.40;;;;;;;16.40;90.25;101750.66;3583981;40;20398;-63
2023/08/23 04:53:36;;;;;;;5.97;3.75;;;;;;;16.30;90.07;101717.03;3584852;40;20041;-63
2023/08/23 04:56:02;;;;;;;10.07;4.60;;;;;;;16.51;89.44;101740.88;3586374;40;20052;-64
2023/08/23 04:58:31;;;;;;;11.60;4.07;;;;;;;16.43;87.83;101726.03;3583761;40;20068;-64
2023/08/23 05:01:05;;;;;;;5.82;3.45;;;;;;;16.52;87.26;101739.88;3581386;40;20052;-64
2023/08/23 05:03:35;;;;;;;7.93;3.45;;;;;;;16.55;87.87;101745.97;3582132;40;20044;-64
2023/08/23 05:06:02;;;;;;;6.07;3.47;;;;;;;16.59;88.15;101743.91;3585774;40;20096;-64
2023/08/23 05:08:29;;;;;;;8.63;3.42;;;;;;;16.59;87.92;101754.78;3584728;40;20064;-64
2023/08/23 05:10:56;;;;;;;6.20;3.30;;;;;;;16.62;88.17;101739.13;3585067;40;20048;-64
2023/08/23 05:13:22;;;;;;;4.80;3.40;;;;;;;16.64;88.24;101741.72;3589684;40;20279;-64
2023/08/23 05:15:56;;;;;;;5.57;3.60;;;;;;;16.68;87.24;101737.78;3580429;40;20063;-64
2023/08/23 05:18:22;;;;;;;6.00;3.20;;;;;;;16.70;87.12;101730.41;3582268;40;20362;-64
2023/08/23 05:21:00;;;;;;;5.43;3.38;;;;;;;16.75;87.36;101733.69;3583581;40;20329;-64
2023/08/23 05:23:26;;;;;;;6.45;3.40;;;;;;;16.77;87.45;101731.72;3584712;40;20128;-64
2023/08/23 05:25:52;;;;;;;7.60;3.55;;;;;;;16.82;87.29;101724.13;3583659;40;20352;-64
2023/08/23 05:28:19;;;;;;;6.22;3.25;;;;;;;16.88;86.74;101731.81;3582778;40;20053;-64
2023/08/23 05:30:46;;;;;;;5.07;3.20;;;;;;;16.92;86.92;101729.72;3583809;40;20056;-64
2023/08/23 05:33:12;;;;;;;5.75;3.60;;;;;;;16.94;86.29;101744.94;3586023;40;20068;-64
2023/08/23 05:35:40;;;;;;;7.43;3.83;;;;;;;16.96;86.24;101738.50;3582692;40;20059;-64
2023/08/23 05:38:07;;;;;;;7.00;3.78;;;;;;;16.75;85.64;101706.56;3583326;40;20060;-65
2023/08/23 05:40:33;;;;;;;7.45;3.50;;;;;;;16.97;86.47;101735.69;3582169;40;20059;-64
2023/08/23 05:42:58;;;;;;;4.95;4.00;;;;;;;16.97;85.47;101746.56;3582192;40;20064;-64
2023/08/23 05:45:26;;;;;;;4.25;3.85;;;;;;;16.97;85.46;101738.41;3582335;40;20078;-64
2023/08/23 05:47:57;;;;;;;4.28;3.88;;;;;;;17.01;85.25;101749.91;3583880;40;20048;-64
2023/08/23 05:50:23;;;;;;;6.28;4.43;;;;;;;17.03;86.06;101747.94;3584603;40;20283;-64
2023/08/23 05:52:49;;;;;;;4.63;4.00;;;;;;;17.05;85.87;101744.13;3582001;40;20075;-64
2023/08/23 05:55:14;;;;;;;6.50;4.20;;;;;;;17.05;85.89;101744.13;3582481;40;20063;-64
2023/08/23 05:57:40;;;;;;;4.88;4.35;;;;;;;17.09;86.04;101747.47;3582639;40;20483;-64
2023/08/23 06:00:07;;;;;;;4.57;4.03;;;;;;;17.12;86.52;101747.25;3582080;40;20536;-64
2023/08/23 06:02:33;;;;;;;7.55;4.55;;;;;;;17.08;85.58;101748.47;3583432;40;20059;-64
2023/08/23 06:04:59;;;;;;;5.95;4.78;;;;;;;17.18;86.48;101752.22;3581935;39;20306;-64
2023/08/23 06:07:25;;;;;;;5.90;5.10;;;;;;;17.17;86.61;101758.66;3582839;40;20349;-64
2023/08/23 06:09:50;;;;;;;6.78;4.70;;;;;;;17.28;85.90;101760.56;3580455;40;20060;-64
2023/08/23 06:12:16;;;;;;;7.10;5.22;;;;;;;17.31;86.35;101753.03;3574041;40;20068;-64
2023/08/23 06:14:42;;;;;;;6.75;5.50;;;;;;;17.36;86.11;101761.72;3581880;40;20495;-64
2023/08/23 06:17:07;;;;;;;7.22;6.03;;;;;;;17.43;87.07;101764.84;3584368;40;20079;-64
2023/08/23 06:19:33;;;;;;;7.03;5.65;;;;;;;17.49;86.42;101763.50;3583287;40;20386;-64
2023/08/23 06:21:59;;;;;;;7.10;5.82;;;;;;;17.55;87.22;101765.75;3582090;39;20063;-64
2023/08/23 06:24:24;;;;;;;7.35;5.75;;;;;;;17.63;87.89;101774.19;3586547;40;20066;-64
2023/08/23 06:26:50;;;;;;;6.47;5.47;;;;;;;17.71;87.95;101770.91;3583151;40;20265;-65
2023/08/23 06:29:17;;;;;;;8.95;5.70;;;;;;;17.73;88.02;101758.03;3582503;40;20051;-66
2023/08/23 06:31:42;;;;;;;7.22;6.07;;;;;;;17.84;87.32;101766.28;3582606;39;20211;-66
2023/08/23 06:34:08;;;;;;;8.48;6.35;;;;;;;17.92;87.77;101766.56;3585691;40;20048;-66
2023/08/23 06:36:34;;;;;;;9.98;6.93;;;;;;;18.01;87.40;101763.09;3576687;40;20068;-66
2023/08/23 06:38:59;;;;;;;7.88;6.50;;;;;;;18.12;87.36;101764.97;3583804;40;20052;-66
2023/08/23 06:41:25;;;;;;;6.85;6.25;;;;;;;18.16;87.31;101755.56;3584438;40;20068;-66
2023/08/23 06:44:01;;;;;;;7.40;6.20;;;;;;;18.38;86.46;101770.22;3586144;40;20426;-66
2023/08/23 06:46:28;;;;;;;11.05;6.93;;;;;;;18.53;87.23;101764.41;3584705;40;20295;-66
2023/08/23 06:48:54;;;;;;;9.05;6.70;;;;;;;18.66;84.62;101767.00;3581329;40;20048;-66
2023/08/23 06:51:20;;;;;;;10.30;7.05;;;;;;;18.83;84.80;101768.38;3583400;40;20052;-66
2023/08/23 06:53:47;;;;;;;8.43;6.22;;;;;;;18.96;83.84;101765.50;3585484;40;20060;-66
2023/08/23 06:56:13;;;;;;;9.38;6.45;;;;;;;19.13;82.76;101769.59;3585144;40;20318;-66
2023/08/23 06:58:39;;;;;;;8.02;6.60;;;;;;;19.30;81.62;101779.06;3585716;40;20062;-66
2023/08/23 07:01:07;;;;;;;9.07;6.20;;;;;;;19.48;82.07;101791.16;3586311;40;20059;-66
2023/08/23 07:03:33;;;;;;;9.70;6.28;;;;;;;19.66;81.11;101788.75;3584559;40;20068;-66
2023/08/23 07:06:02;;;;;;;8.93;6.13;;;;;;;19.85;79.78;101794.41;3585424;40;20078;-66
2023/08/23 07:08:28;;;;;;;7.10;5.70;;;;;;;19.92;78.77;101767.44;3587101;40;20106;-66
2023/08/23 07:10:53;;;;;;;7.32;5.80;;;;;;;20.14;77.01;101783.69;3582557;40;20658;-66
2023/08/23 07:13:19;;;;;;;9.07;6.28;;;;;;;20.38;76.62;101797.03;3584671;40;20098;-66
2023/08/23 07:15:45;;;;;;;6.45;5.85;;;;;;;20.52;74.41;101800.44;3581626;40;20060;-67
2023/08/23 07:18:10;;;;;;;7.28;5.88;;;;;;;20.68;72.76;101803.56;3581271;40;20417;-66
2023/08/23 07:20:36;;;;;;;7.35;6.00;;;;;;;20.85;72.96;101807.50;3582660;40;20067;-65
2023/08/23 07:23:03;;;;;;;7.82;5.20;;;;;;;20.51;71.59;101724.94;3584021;40;20076;-65
2023/08/23 07:25:29;;;;;;;7.47;5.78;;;;;;;21.13;71.30;101800.41;3583120;40;20055;-66
2023/08/23 07:27:55;;;;;;;8.00;5.05;;;;;;;21.24;70.62;101813.97;3584475;40;20060;-65
2023/08/23 07:30:21;;;;;;;6.10;4.97;;;;;;;21.37;70.97;101802.78;3584340;40;20395;-65
2023/08/23 07:32:47;;;;;;;8.73;5.68;;;;;;;21.56;69.17;101812.91;3585992;40;20066;-65
2023/08/23 07:35:12;;;;;;;6.05;4.85;;;;;;;21.75;69.25;101823.00;3584142;40;20071;-66
2023/08/23 07:37:38;;;;;;;7.53;4.95;;;;;;;21.87;67.62;101812.78;3586740;40;20064;-66
2023/08/23 07:40:06;;;;;;;7.88;5.18;;;;;;;22.03;67.32;101816.66;3582955;40;20075;-66
2023/08/23 07:42:31;;;;;;;6.63;5.03;;;;;;;22.10;66.31;101814.19;3586317;40;20048;-66
2023/08/23 07:44:57;;;;;;;6.03;4.45;;;;;;;22.19;65.89;101817.97;3587892;40;20059;-65
2023/08/23 07:47:23;;;;;;;9.70;5.00;;;;;;;22.32;65.16;101821.25;3586389;40;20055;-66
2023/08/23 07:49:49;;;;;;;6.63;5.00;;;;;;;22.42;64.86;101826.72;3588287;40;20456;-65
2023/08/23 07:52:14;;;;;;;6.85;4.43;;;;;;;22.56;64.94;101822.66;3575983;40;20048;-66
2023/08/23 07:54:40;;;;;;;6.72;4.50;;;;;;;22.74;63.04;101823.59;3583792;40;20306;-66
2023/08/23 07:57:06;;;;;;;6.50;4.03;;;;;;;22.87;60.84;101826.88;3587429;40;20060;-65
2023/08/23 07:59:31;;;;;;;5.07;4.38;;;;;;;22.95;59.34;101817.91;3584140;40;20053;-66
2023/08/23 08:01:57;;;;;;;5.25;4.18;;;;;;;23.06;59.74;101819.59;3587644;40;20094;-65
2023/08/23 08:04:22;;;;;;;5.10;3.65;;;;;;;23.16;57.91;101825.91;3586811;40;20083;-65
2023/08/23 08:06:48;;;;;;;4.18;3.75;;;;;;;23.22;58.45;101819.78;3589611;40;20056;-66
2023/08/23 08:09:14;;;;;;;3.95;3.45;;;;;;;23.45;59.07;101824.84;3585840;40;20064;-66
2023/08/23 08:11:39;;;;;;;5.68;3.75;;;;;;;23.61;57.46;101825.03;3583732;40;20068;-66
2023/08/23 08:14:05;;;;;;;7.60;3.70;;;;;;;23.79;57.03;101816.84;3586268;40;20071;-65
2023/08/23 08:16:30;;;;;;;5.40;3.47;;;;;;;23.92;57.86;101822.78;3583632;40;20071;-66
2023/08/23 08:18:56;;;;;;;5.57;3.50;;;;;;;24.05;56.04;101827.88;3585009;39;20408;-66
2023/08/23 08:21:22;;;;;;;5.63;4.25;;;;;;;24.18;54.28;101822.81;3586224;40;20124;-65
2023/08/23 08:23:47;;;;;;;5.18;3.60;;;;;;;24.28;56.50;101830.97;3584676;40;20063;-66
2023/08/23 08:26:14;;;;;;;4.15;3.40;;;;;;;24.36;54.73;101813.66;3588671;40;20064;-66
2023/08/23 08:28:43;;;;;;;3.45;2.58;;;;;;;24.49;53.91;101819.66;3584872;40;20044;-66
2023/08/23 08:31:10;;;;;;;2.47;2.28;;;;;;;24.67;52.57;101822.31;3585247;40;20300;-66
2023/08/23 08:33:38;;;;;;;3.88;3.30;;;;;;;24.51;52.90;101779.09;3583529;40;20060;-66
2023/08/23 08:36:04;;;;;;;5.30;3.60;;;;;;;24.82;53.17;101815.19;3588522;40;20055;-65
2023/08/23 08:38:29;;;;;;;2.85;2.50;;;;;;;25.02;53.40;101815.78;3584863;40;20378;-65
2023/08/23 08:40:56;;;;;;;4.35;3.95;;;;;;;25.14;52.44;101811.75;3586640;40;20100;-65
2023/08/23 08:43:22;;;;;;;4.43;2.70;;;;;;;25.21;49.97;101804.56;3587599;40;20078;-66
2023/08/23 08:45:48;;;;;;;3.88;3.22;;;;;;;25.28;50.79;101812.13;3589087;40;20047;-66
2023/08/23 08:48:15;;;;;;;4.22;2.78;;;;;;;25.35;50.29;101813.22;3586816;40;20074;-65
2023/08/23 08:50:44;;;;;;;3.55;3.20;;;;;;;25.46;50.87;101812.88;3590021;40;20060;-66
2023/08/23 08:53:17;;;;;;;6.32;3.67;;;;;;;25.56;50.09;101816.31;3584764;40;20099;-66
2023/08/23 08:55:45;;;;;;;4.97;3.43;;;;;;;25.56;50.14;101813.56;3588242;40;20060;-66
2023/08/23 08:58:19;;;;;;;6.47;3.20;;;;;;;25.63;50.70;101814.66;3582926;39;20070;-65
2023/08/23 09:00:49;;;;;;;4.80;3.88;;;;;;;25.71;50.08;101811.88;3584553;40;20430;-66
2023/08/23 09:03:19;;;;;;;5.30;3.80;;;;;;;25.79;50.63;101807.44;3583499;40;20064;-66
2023/08/23 09:05:50;;;;;;;5.85;3.67;;;;;;;25.91;48.54;101817.09;3586948;40;20053;-66
2023/08/23 09:08:16;;;;;;;4.38;3.40;;;;;;;26.00;49.29;101812.47;3584965;40;20063;-66
2023/08/23 09:10:42;;;;;;;5.68;3.40;;;;;;;26.15;50.45;101811.59;3575151;40;20052;-66
2023/08/23 09:13:08;;;;;;;6.13;3.40;;;;;;;26.28;49.68;101812.97;3583985;40;20056;-66
2023/08/23 09:15:33;;;;;;;8.02;3.60;;;;;;;26.34;48.72;101812.25;3584961;40;20056;-66
2023/08/23 09:17:59;;;;;;;8.35;3.90;;;;;;;26.42;50.33;101809.50;3584194;40;20071;-66
2023/08/23 09:20:25;;;;;;;8.13;3.92;;;;;;;26.60;49.60;101807.41;3582327;40;20054;-66
2023/08/23 09:22:53;;;;;;;6.43;3.80;;;;;;;26.84;48.54;101811.16;3586524;40;20056;-65
2023/08/23 09:25:20;;;;;;;5.55;4.20;;;;;;;26.97;48.19;101818.88;3584264;40;20052;-66
2023/08/23 09:27:46;;;;;;;5.75;4.93;;;;;;;27.08;47.68;101808.31;3586887;40;20060;-66
2023/08/23 09:30:13;;;;;;;6.10;4.10;;;;;;;27.13;48.31;101815.16;3583407;40;20367;-66
2023/08/23 09:32:41;;;;;;;7.05;4.82;;;;;;;27.13;47.58;101809.66;3583826;40;20106;-65
2023/08/23 09:35:15;;;;;;;8.02;5.22;;;;;;;27.28;47.71;101830.81;3584482;40;20056;-65
2023/08/23 09:37:46;;;;;;;8.82;6.15;;;;;;;27.32;48.48;101828.56;3586614;40;20056;-65
2023/08/23 09:40:26;;;;;;;6.38;4.68;;;;;;;27.36;47.43;101832.66;3583647;40;20339;-65
2023/08/23 09:42:53;;;;;;;9.02;5.60;;;;;;;27.22;46.39;101794.81;3584218;40;20052;-66
2023/08/23 09:45:23;;;;;;;7.15;3.90;;;;;;;27.57;45.82;101811.84;3584548;40;20072;-65
2023/08/23 09:47:58;;;;;;;4.97;3.85;;;;;;;27.74;45.31;101813.44;3583537;40;20070;-68
2023/08/23 09:50:25;;;;;;;6.00;3.97;;;;;;;27.87;46.33;101810.94;3587394;40;20393;-66
2023/08/23 09:53:01;;;;;;;6.65;4.75;;;;;;;27.97;46.03;101811.59;3575186;40;20121;-65
2023/08/23 09:55:28;;;;;;;7.13;4.13;;;;;;;28.08;47.65;101798.34;3584151;39;20700;-65
2023/08/23 09:57:55;;;;;;;7.53;4.82;;;;;;;28.30;45.28;101815.97;3576525;40;20369;-66
2023/08/23 10:00:22;;;;;;;5.95;4.38;;;;;;;28.19;45.61;101782.16;3580724;39;20369;-66
2023/08/23 10:02:48;;;;;;;6.55;4.43;;;;;;;28.36;43.79;101818.81;3582347;40;20075;-65
2023/08/23 10:05:16;;;;;;;6.47;4.20;;;;;;;28.37;45.59;101822.44;3585580;40;20137;-65
2023/08/23 10:07:41;;;;;;;6.25;4.22;;;;;;;28.36;44.64;101823.50;3584750;40;20090;-66
2023/08/23 10:10:09;;;;;;;5.05;4.20;;;;;;;28.44;45.83;101812.38;3584253;40;20068;-66
2023/08/23 10:12:47;;;;;;;9.00;4.72;;;;;;;28.64;46.51;101812.66;3582249;40;20114;-66
2023/08/23 10:15:21;;;;;;;5.15;3.53;;;;;;;28.85;45.57;101815.53;3583666;40;20181;-66
2023/08/23 10:17:48;;;;;;;5.53;4.13;;;;;;;28.97;45.23;101812.31;3580803;40;20403;-65
2023/08/23 10:20:14;;;;;;;3.92;3.53;;;;;;;29.11;43.88;101815.06;3581866;40;20548;-65
2023/08/23 10:22:41;;;;;;;10.68;4.35;;;;;;;29.09;44.22;101808.88;3572087;40;20075;-65
2023/08/23 10:25:19;;;;;;;8.07;4.10;;;;;;;29.32;44.15;101814.28;3585493;40;20051;-65
2023/08/23 10:27:49;;;;;;;5.07;3.17;;;;;;;29.36;41.71;101807.28;3584136;40;20055;-66
2023/08/23 10:30:28;;;;;;;5.47;3.15;;;;;;;29.53;39.88;101810.69;3582779;39;20137;-65
2023/08/23 10:33:07;;;;;;;3.78;3.38;;;;;;;29.68;41.92;101810.66;3583926;40;20052;-66
2023/08/23 10:35:35;;;;;;;6.22;4.05;;;;;;;29.73;40.51;101808.16;3582017;40;20111;-65
2023/08/23 10:38:05;;;;;;;4.28;3.17;;;;;;;29.82;43.11;101815.28;3580188;40;20055;-65
2023/08/23 10:40:32;;;;;;;6.50;3.95;;;;;;;29.87;40.18;101808.28;3580612;40;20056;-65
2023/08/23 10:43:03;;;;;;;3.67;3.35;;;;;;;29.96;42.88;101807.09;3582379;40;20477;-65
2023/08/23 10:45:51;;;;;;;4.78;3.05;;;;;;;30.03;39.65;101803.31;3581544;39;20122;-65
2023/08/23 10:48:20;;;;;;;5.00;3.30;;;;;;;30.04;40.10;101798.66;3583390;40;20060;-66
2023/08/23 10:50:48;;;;;;;5.38;3.15;;;;;;;30.07;40.89;101799.09;3581861;40;20082;-66
2023/08/23 10:53:17;;;;;;;4.57;3.55;;;;;;;30.14;39.91;101796.38;3579907;40;20106;-65
2023/08/23 10:55:43;;;;;;;8.02;3.20;;;;;;;30.15;38.79;101767.56;3582463;40;20052;-66
2023/08/23 10:58:08;;;;;;;5.07;3.78;;;;;;;30.42;38.55;101795.56;3582180;40;20430;-66
2023/08/23 11:00:35;;;;;;;4.53;3.47;;;;;;;30.52;39.10;101788.59;3582216;40;20071;-66
2023/08/23 11:03:02;;;;;;;2.95;2.47;;;;;;;30.66;36.96;101786.72;3582052;40;20052;-65
2023/08/23 11:05:29;;;;;;;6.00;2.53;;;;;;;30.75;34.78;101779.09;3583088;40;20136;-65
2023/08/23 11:07:57;;;;;;;3.78;2.47;;;;;;;30.86;35.58;101769.34;3580906;40;20407;-65
2023/08/23 11:10:25;;;;;;;3.42;2.95;;;;;;;30.90;36.23;101770.69;3582222;40;20099;-65
2023/08/23 11:12:51;;;;;;;3.95;2.70;;;;;;;30.87;37.00;101765.53;3584272;40;20054;-65
2023/08/23 11:15:17;;;;;;;4.03;2.75;;;;;;;30.97;37.52;101763.22;3581829;40;20055;-65
2023/08/23 11:17:43;;;;;;;5.45;2.85;;;;;;;31.19;35.78;101764.81;3583374;40;20070;-65
2023/08/23 11:20:10;;;;;;;2.88;2.22;;;;;;;31.29;35.16;101769.13;3581853;40;20367;-66
2023/08/23 11:22:36;;;;;;;7.07;3.42;;;;;;;31.27;34.53;101762.91;3582817;40;20060;-65
2023/08/23 11:25:02;;;;;;;9.30;3.92;;;;;;;31.34;36.42;101761.06;3581137;39;20061;-65